sensor_id;sensor_type;location;lat;lon;timestamp;temperature;humidity
47604;DHT22;33326;51.116;6.900;2023-05-02T00:03:56;13.20;99.90
47604;DHT22;33326;51.116;6.900;2023-05-02T00:09:00;13.10;99.90
47604;DHT22;33326;51.116;6.900;2023-05-02T00:14:01;13.10;99.90
47604;DHT22;33326;51.116;6.900;2023-05-02T00:19:03;13.00;99.90
47604;DHT22;33326;51.116;6.900;2023-05-02T00:24:06;12.80;99.90
47604;DHT22;33326;51.116;6.900;2023-05-02T00:29:08;12.50;99.90
47604;DHT22;33326;51.116;6.900;2023-05-02T00:34:10;12.40;99.90
47604;DHT22;33326;51.116;6.900;2023-05-02T00:39:13;12.30;99.90
47604;DHT22;33326;51.116;6.900;2023-05-02T00:44:16;12.40;99.90
47604;DHT22;33326;51.116;6.900;2023-05-02T00:49:18;12.40;99.90
47604;DHT22;33326;51.116;6.900;2023-05-02T00:54:21;12.50;99.90
47604;DHT22;33326;51.116;6.900;2023-05-02T00:59:23;12.40;99.90
47604;DHT22;33326;51.116;6.900;2023-05-02T01:04:33;12.10;99.90
47604;DHT22;33326;51.116;6.900;2023-05-02T01:15:16;12.10;99.90
47604;DHT22;33326;51.116;6.900;2023-05-02T01:20:20;12.00;99.90
47604;DHT22;33326;51.116;6.900;2023-05-02T01:25:30;12.00;99.90
47604;DHT22;33326;51.116;6.900;2023-05-02T01:30:37;11.80;99.90
47604;DHT22;33326;51.116;6.900;2023-05-02T01:35:41;11.80;99.90
47604;DHT22;33326;51.116;6.900;2023-05-02T01:40:45;11.70;99.90
47604;DHT22;33326;51.116;6.900;2023-05-02T01:45:50;11.80;99.90
47604;DHT22;33326;51.116;6.900;2023-05-02T01:50:54;11.80;99.90
47604;DHT22;33326;51.116;6.900;2023-05-02T01:55:58;11.80;99.90
47604;DHT22;33326;51.116;6.900;2023-05-02T02:01:02;12.00;99.90
47604;DHT22;33326;51.116;6.900;2023-05-02T02:06:05;12.00;99.90
47604;DHT22;33326;51.116;6.900;2023-05-02T02:11:10;12.00;99.90
47604;DHT22;33326;51.116;6.900;2023-05-02T02:16:22;12.00;99.90
47604;DHT22;33326;51.116;6.900;2023-05-02T02:21:27;12.20;99.90
47604;DHT22;33326;51.116;6.900;2023-05-02T02:26:29;12.30;99.90
47604;DHT22;33326;51.116;6.900;2023-05-02T02:31:33;12.00;99.90
47604;DHT22;33326;51.116;6.900;2023-05-02T02:36:41;12.10;99.90
47604;DHT22;33326;51.116;6.900;2023-05-02T02:41:54;12.00;99.90
47604;DHT22;33326;51.116;6.900;2023-05-02T02:47:08;12.20;99.90
47604;DHT22;33326;51.116;6.900;2023-05-02T02:52:17;12.20;99.90
47604;DHT22;33326;51.116;6.900;2023-05-02T02:57:27;12.40;99.90
47604;DHT22;33326;51.116;6.900;2023-05-02T03:02:35;12.50;99.90
47604;DHT22;33326;51.116;6.900;2023-05-02T03:07:38;12.30;99.90
47604;DHT22;33326;51.116;6.900;2023-05-02T03:12:40;12.40;99.90
47604;DHT22;33326;51.116;6.900;2023-05-02T03:17:44;12.50;99.90
47604;DHT22;33326;51.116;6.900;2023-05-02T03:22:46;12.50;99.90
47604;DHT22;33326;51.116;6.900;2023-05-02T03:27:48;12.60;99.90
47604;DHT22;33326;51.116;6.900;2023-05-02T03:32:51;12.60;99.90
47604;DHT22;33326;51.116;6.900;2023-05-02T03:37:53;12.60;99.90
47604;DHT22;33326;51.116;6.900;2023-05-02T03:42:55;12.50;99.90
47604;DHT22;33326;51.116;6.900;2023-05-02T03:48:04;12.50;99.90
47604;DHT22;33326;51.116;6.900;2023-05-02T03:53:06;12.50;99.90
47604;DHT22;33326;51.116;6.900;2023-05-02T03:58:18;12.50;99.90
47604;DHT22;33326;51.116;6.900;2023-05-02T04:03:22;12.50;99.90
47604;DHT22;33326;51.116;6.900;2023-05-02T04:08:24;12.50;99.90
47604;DHT22;33326;51.116;6.900;2023-05-02T04:13:26;12.40;99.90
47604;DHT22;33326;51.116;6.900;2023-05-02T04:18:32;12.50;99.90
47604;DHT22;33326;51.116;6.900;2023-05-02T04:23:38;12.50;99.90
47604;DHT22;33326;51.116;6.900;2023-05-02T04:28:40;12.50;99.90
47604;DHT22;33326;51.116;6.900;2023-05-02T04:33:45;12.40;99.90
47604;DHT22;33326;51.116;6.900;2023-05-02T04:38:50;12.40;99.90
47604;DHT22;33326;51.116;6.900;2023-05-02T04:43:53;12.40;99.90
47604;DHT22;33326;51.116;6.900;2023-05-02T04:48:56;12.30;99.90
47604;DHT22;33326;51.116;6.900;2023-05-02T04:53:58;12.50;99.90
47604;DHT22;33326;51.116;6.900;2023-05-02T04:59:01;12.50;99.90
47604;DHT22;33326;51.116;6.900;2023-05-02T05:04:06;12.50;99.90
47604;DHT22;33326;51.116;6.900;2023-05-02T05:09:08;12.50;99.90
47604;DHT22;33326;51.116;6.900;2023-05-02T05:14:10;12.50;99.90
47604;DHT22;33326;51.116;6.900;2023-05-02T05:19:16;12.50;99.90
47604;DHT22;33326;51.116;6.900;2023-05-02T05:24:18;12.50;99.90
47604;DHT22;33326;51.116;6.900;2023-05-02T05:29:20;12.50;99.90
47604;DHT22;33326;51.116;6.900;2023-05-02T05:34:24;12.40;99.90
47604;DHT22;33326;51.116;6.900;2023-05-02T05:39:30;12.50;99.90
47604;DHT22;33326;51.116;6.900;2023-05-02T05:44:34;12.50;99.90
47604;DHT22;33326;51.116;6.900;2023-05-02T05:49:38;12.40;99.90
47604;DHT22;33326;51.116;6.900;2023-05-02T05:54:44;12.40;99.90
47604;DHT22;33326;51.116;6.900;2023-05-02T05:59:46;12.30;99.90
47604;DHT22;33326;51.116;6.900;2023-05-02T06:04:50;12.30;99.90
47604;DHT22;33326;51.116;6.900;2023-05-02T06:09:55;12.20;99.90
47604;DHT22;33326;51.116;6.900;2023-05-02T06:14:58;12.00;99.90
47604;DHT22;33326;51.116;6.900;2023-05-02T06:20:02;12.00;99.90
47604;DHT22;33326;51.116;6.900;2023-05-02T06:25:05;11.90;99.90
47604;DHT22;33326;51.116;6.900;2023-05-02T06:30:08;12.00;99.90
47604;DHT22;33326;51.116;6.900;2023-05-02T06:35:11;12.00;99.90
47604;DHT22;33326;51.116;6.900;2023-05-02T06:40:13;12.20;99.90
47604;DHT22;33326;51.116;6.900;2023-05-02T06:45:15;12.20;99.90
47604;DHT22;33326;51.116;6.900;2023-05-02T06:50:19;12.00;99.90
47604;DHT22;33326;51.116;6.900;2023-05-02T06:55:21;11.90;99.90
47604;DHT22;33326;51.116;6.900;2023-05-02T07:00:23;11.80;99.90
47604;DHT22;33326;51.116;6.900;2023-05-02T07:05:27;11.70;99.90
47604;DHT22;33326;51.116;6.900;2023-05-02T07:10:30;11.60;99.90
47604;DHT22;33326;51.116;6.900;2023-05-02T07:15:31;11.90;99.90
47604;DHT22;33326;51.116;6.900;2023-05-02T07:20:35;12.10;99.90
47604;DHT22;33326;51.116;6.900;2023-05-02T07:25:38;12.00;99.90
47604;DHT22;33326;51.116;6.900;2023-05-02T07:30:40;12.20;99.90
47604;DHT22;33326;51.116;6.900;2023-05-02T07:35:43;12.40;99.90
47604;DHT22;33326;51.116;6.900;2023-05-02T07:40:45;12.50;99.90
47604;DHT22;33326;51.116;6.900;2023-05-02T07:45:47;12.30;99.90
47604;DHT22;33326;51.116;6.900;2023-05-02T07:50:50;12.20;99.90
47604;DHT22;33326;51.116;6.900;2023-05-02T07:55:52;12.10;99.90
47604;DHT22;33326;51.116;6.900;2023-05-02T08:00:53;12.10;99.90
47604;DHT22;33326;51.116;6.900;2023-05-02T08:05:57;12.50;99.90
47604;DHT22;33326;51.116;6.900;2023-05-02T08:10:58;12.70;99.90
47604;DHT22;33326;51.116;6.900;2023-05-02T08:16:00;12.80;99.90
47604;DHT22;33326;51.116;6.900;2023-05-02T08:21:04;13.10;99.90
47604;DHT22;33326;51.116;6.900;2023-05-02T08:26:06;13.10;99.90
47604;DHT22;33326;51.116;6.900;2023-05-02T08:31:10;12.50;99.90
47604;DHT22;33326;51.116;6.900;2023-05-02T08:36:15;12.00;99.90
47604;DHT22;33326;51.116;6.900;2023-05-02T08:41:18;12.00;99.90
47604;DHT22;33326;51.116;6.900;2023-05-02T08:46:22;12.00;99.90
47604;DHT22;33326;51.116;6.900;2023-05-02T08:51:26;11.90;99.90
47604;DHT22;33326;51.116;6.900;2023-05-02T08:56:29;11.80;99.90
47604;DHT22;33326;51.116;6.900;2023-05-02T09:01:32;11.90;99.90
47604;DHT22;33326;51.116;6.900;2023-05-02T09:06:37;11.90;99.90
47604;DHT22;33326;51.116;6.900;2023-05-02T09:11:39;12.00;99.90
47604;DHT22;33326;51.116;6.900;2023-05-02T09:16:42;12.00;99.90
47604;DHT22;33326;51.116;6.900;2023-05-02T09:21:45;12.20;99.90
47604;DHT22;33326;51.116;6.900;2023-05-02T09:26:56;12.30;99.90
47604;DHT22;33326;51.116;6.900;2023-05-02T09:31:58;12.80;99.90
47604;DHT22;33326;51.116;6.900;2023-05-02T09:37:01;12.80;99.90
47604;DHT22;33326;51.116;6.900;2023-05-02T09:42:05;13.00;99.90
47604;DHT22;33326;51.116;6.900;2023-05-02T09:47:07;13.10;99.90
47604;DHT22;33326;51.116;6.900;2023-05-02T09:52:11;13.50;99.90
47604;DHT22;33326;51.116;6.900;2023-05-02T09:57:13;13.60;99.90
47604;DHT22;33326;51.116;6.900;2023-05-02T10:02:15;13.70;99.90
47604;DHT22;33326;51.116;6.900;2023-05-02T10:07:19;13.50;99.90
47604;DHT22;33326;51.116;6.900;2023-05-02T10:12:22;13.60;99.90
47604;DHT22;33326;51.116;6.900;2023-05-02T10:17:30;14.10;99.90
47604;DHT22;33326;51.116;6.900;2023-05-02T10:22:34;14.20;99.90
47604;DHT22;33326;51.116;6.900;2023-05-02T10:27:37;14.60;99.90
47604;DHT22;33326;51.116;6.900;2023-05-02T10:32:39;14.50;99.90
47604;DHT22;33326;51.116;6.900;2023-05-02T10:37:43;14.20;99.90
47604;DHT22;33326;51.116;6.900;2023-05-02T10:42:46;14.10;99.90
47604;DHT22;33326;51.116;6.900;2023-05-02T10:47:51;14.40;99.90
47604;DHT22;33326;51.116;6.900;2023-05-02T10:53:31;14.60;99.90
47604;DHT22;33326;51.116;6.900;2023-05-02T10:58:33;15.10;99.90
47604;DHT22;33326;51.116;6.900;2023-05-02T11:03:52;15.30;99.90
47604;DHT22;33326;51.116;6.900;2023-05-02T11:14:45;15.50;99.90
47604;DHT22;33326;51.116;6.900;2023-05-02T11:20:23;15.40;99.90
47604;DHT22;33326;51.116;6.900;2023-05-02T11:25:37;15.60;99.70
47604;DHT22;33326;51.116;6.900;2023-05-02T11:30:44;16.20;99.90
47604;DHT22;33326;51.116;6.900;2023-05-02T11:35:48;16.00;98.80
47604;DHT22;33326;51.116;6.900;2023-05-02T11:40:58;15.50;99.30
47604;DHT22;33326;51.116;6.900;2023-05-02T11:46:01;15.10;99.30
47604;DHT22;33326;51.116;6.900;2023-05-02T11:51:05;15.00;99.10
47604;DHT22;33326;51.116;6.900;2023-05-02T11:56:07;15.00;99.70
47604;DHT22;33326;51.116;6.900;2023-05-02T12:01:14;15.90;98.30
47604;DHT22;33326;51.116;6.900;2023-05-02T12:06:17;15.70;98.40
47604;DHT22;33326;51.116;6.900;2023-05-02T12:11:19;16.70;98.60
47604;DHT22;33326;51.116;6.900;2023-05-02T12:16:22;18.30;99.00
47604;DHT22;33326;51.116;6.900;2023-05-02T12:21:24;18.80;95.80
47604;DHT22;33326;51.116;6.900;2023-05-02T12:26:28;18.00;94.70
47604;DHT22;33326;51.116;6.900;2023-05-02T12:31:33;16.80;96.00
47604;DHT22;33326;51.116;6.900;2023-05-02T12:36:43;17.00;96.50
47604;DHT22;33326;51.116;6.900;2023-05-02T12:41:45;16.90;96.00
47604;DHT22;33326;51.116;6.900;2023-05-02T12:46:58;16.90;95.40
47604;DHT22;33326;51.116;6.900;2023-05-02T12:52:00;16.30;94.90
47604;DHT22;33326;51.116;6.900;2023-05-02T12:57:02;16.50;96.10
47604;DHT22;33326;51.116;6.900;2023-05-02T13:02:06;17.10;95.30
47604;DHT22;33326;51.116;6.900;2023-05-02T13:07:08;18.00;95.70
47604;DHT22;33326;51.116;6.900;2023-05-02T13:12:11;18.20;93.50
47604;DHT22;33326;51.116;6.900;2023-05-02T13:17:14;18.10;93.40
47604;DHT22;33326;51.116;6.900;2023-05-02T13:22:17;19.50;94.50
47604;DHT22;33326;51.116;6.900;2023-05-02T13:27:26;22.30;91.40
47604;DHT22;33326;51.116;6.900;2023-05-02T13:32:37;23.00;77.70
47604;DHT22;33326;51.116;6.900;2023-05-02T13:37:39;21.60;80.90
47604;DHT22;33326;51.116;6.900;2023-05-02T13:42:41;22.20;82.20
47604;DHT22;33326;51.116;6.900;2023-05-02T13:47:45;24.00;83.90
47604;DHT22;33326;51.116;6.900;2023-05-02T13:52:47;25.00;77.20
47604;DHT22;33326;51.116;6.900;2023-05-02T13:57:49;26.70;75.40
47604;DHT22;33326;51.116;6.900;2023-05-02T14:02:52;27.90;73.20
47604;DHT22;33326;51.116;6.900;2023-05-02T14:07:54;28.30;64.00
47604;DHT22;33326;51.116;6.900;2023-05-02T14:12:55;28.10;62.40
47604;DHT22;33326;51.116;6.900;2023-05-02T14:17:59;27.90;61.30
47604;DHT22;33326;51.116;6.900;2023-05-02T14:23:00;29.90;59.90
47604;DHT22;33326;51.116;6.900;2023-05-02T14:28:03;29.90;54.40
47604;DHT22;33326;51.116;6.900;2023-05-02T14:33:06;30.30;57.00
47604;DHT22;33326;51.116;6.900;2023-05-02T14:38:08;26.80;55.50
47604;DHT22;33326;51.116;6.900;2023-05-02T14:43:10;27.20;55.10
47604;DHT22;33326;51.116;6.900;2023-05-02T14:48:13;28.50;51.80
47604;DHT22;33326;51.116;6.900;2023-05-02T14:53:16;27.50;53.30
47604;DHT22;33326;51.116;6.900;2023-05-02T14:58:18;28.90;53.50
47604;DHT22;33326;51.116;6.900;2023-05-02T15:03:22;30.50;52.90
47604;DHT22;33326;51.116;6.900;2023-05-02T15:08:23;32.00;50.70
47604;DHT22;33326;51.116;6.900;2023-05-02T15:13:25;31.00;50.10
47604;DHT22;33326;51.116;6.900;2023-05-02T15:18:29;31.20;50.40
47604;DHT22;33326;51.116;6.900;2023-05-02T15:23:31;30.90;50.10
47604;DHT22;33326;51.116;6.900;2023-05-02T15:28:33;31.40;49.60
47604;DHT22;33326;51.116;6.900;2023-05-02T15:33:36;32.00;48.20
47604;DHT22;33326;51.116;6.900;2023-05-02T15:38:38;30.50;47.20
47604;DHT22;33326;51.116;6.900;2023-05-02T15:43:42;30.70;48.80
47604;DHT22;33326;51.116;6.900;2023-05-02T15:48:45;31.70;48.60
47604;DHT22;33326;51.116;6.900;2023-05-02T15:53:48;31.30;46.50
47604;DHT22;33326;51.116;6.900;2023-05-02T15:58:51;31.50;48.00
47604;DHT22;33326;51.116;6.900;2023-05-02T16:03:54;31.20;47.20
47604;DHT22;33326;51.116;6.900;2023-05-02T16:08:56;29.50;46.50
47604;DHT22;33326;51.116;6.900;2023-05-02T16:13:59;28.70;47.80
47604;DHT22;33326;51.116;6.900;2023-05-02T16:19:05;30.10;45.80
47604;DHT22;33326;51.116;6.900;2023-05-02T16:24:12;28.20;45.80
47604;DHT22;33326;51.116;6.900;2023-05-02T16:29:14;24.60;48.20
47604;DHT22;33326;51.116;6.900;2023-05-02T16:34:17;23.20;49.50
47604;DHT22;33326;51.116;6.900;2023-05-02T16:39:19;22.40;50.50
47604;DHT22;33326;51.116;6.900;2023-05-02T16:44:21;21.30;51.70
47604;DHT22;33326;51.116;6.900;2023-05-02T16:49:24;19.80;53.70
47604;DHT22;33326;51.116;6.900;2023-05-02T16:54:26;19.10;55.30
47604;DHT22;33326;51.116;6.900;2023-05-02T16:59:28;18.70;55.70
47604;DHT22;33326;51.116;6.900;2023-05-02T17:04:32;18.60;56.50
47604;DHT22;33326;51.116;6.900;2023-05-02T17:09:34;18.10;56.70
47604;DHT22;33326;51.116;6.900;2023-05-02T17:14:36;18.00;57.90
47604;DHT22;33326;51.116;6.900;2023-05-02T17:19:40;18.00;57.00
47604;DHT22;33326;51.116;6.900;2023-05-02T17:24:42;18.20;56.90
47604;DHT22;33326;51.116;6.900;2023-05-02T17:29:47;17.80;57.70
47604;DHT22;33326;51.116;6.900;2023-05-02T17:34:51;17.20;59.80
47604;DHT22;33326;51.116;6.900;2023-05-02T17:39:53;17.10;60.00
47604;DHT22;33326;51.116;6.900;2023-05-02T17:44:54;16.90;59.70
47604;DHT22;33326;51.116;6.900;2023-05-02T17:49:58;16.40;60.50
47604;DHT22;33326;51.116;6.900;2023-05-02T17:55:01;16.00;60.50
47604;DHT22;33326;51.116;6.900;2023-05-02T18:00:04;15.80;61.10
47604;DHT22;33326;51.116;6.900;2023-05-02T18:05:10;15.90;61.00
47604;DHT22;33326;51.116;6.900;2023-05-02T18:10:12;15.70;61.00
47604;DHT22;33326;51.116;6.900;2023-05-02T18:15:14;15.50;60.90
47604;DHT22;33326;51.116;6.900;2023-05-02T18:20:19;15.40;61.60
47604;DHT22;33326;51.116;6.900;2023-05-02T18:25:21;15.40;61.60
47604;DHT22;33326;51.116;6.900;2023-05-02T18:30:23;15.40;62.10
47604;DHT22;33326;51.116;6.900;2023-05-02T18:35:26;15.30;62.20
47604;DHT22;33326;51.116;6.900;2023-05-02T18:40:28;15.20;62.70
47604;DHT22;33326;51.116;6.900;2023-05-02T18:45:32;15.00;61.90
47604;DHT22;33326;51.116;6.900;2023-05-02T18:50:35;15.00;62.40
47604;DHT22;33326;51.116;6.900;2023-05-02T18:55:37;14.80;62.80
47604;DHT22;33326;51.116;6.900;2023-05-02T19:00:39;14.40;63.80
47604;DHT22;33326;51.116;6.900;2023-05-02T19:05:45;14.20;64.90
47604;DHT22;33326;51.116;6.900;2023-05-02T19:10:49;14.10;65.30
47604;DHT22;33326;51.116;6.900;2023-05-02T19:15:51;13.80;66.40
47604;DHT22;33326;51.116;6.900;2023-05-02T19:20:54;13.60;66.80
47604;DHT22;33326;51.116;6.900;2023-05-02T19:25:56;13.50;67.70
47604;DHT22;33326;51.116;6.900;2023-05-02T19:30:58;13.30;68.20
47604;DHT22;33326;51.116;6.900;2023-05-02T19:36:02;13.20;68.50
47604;DHT22;33326;51.116;6.900;2023-05-02T19:41:06;13.20;68.90
47604;DHT22;33326;51.116;6.900;2023-05-02T19:46:08;13.20;69.40
47604;DHT22;33326;51.116;6.900;2023-05-02T19:51:11;13.20;69.40
47604;DHT22;33326;51.116;6.900;2023-05-02T19:56:13;13.10;69.70
47604;DHT22;33326;51.116;6.900;2023-05-02T20:01:15;13.20;69.70
47604;DHT22;33326;51.116;6.900;2023-05-02T20:06:18;13.20;69.90
47604;DHT22;33326;51.116;6.900;2023-05-02T20:11:20;13.10;70.30
47604;DHT22;33326;51.116;6.900;2023-05-02T20:16:22;13.10;71.10
47604;DHT22;33326;51.116;6.900;2023-05-02T20:21:25;12.90;71.70
47604;DHT22;33326;51.116;6.900;2023-05-02T20:26:27;12.90;72.30
47604;DHT22;33326;51.116;6.900;2023-05-02T20:31:30;12.70;73.30
47604;DHT22;33326;51.116;6.900;2023-05-02T20:36:33;12.60;72.90
47604;DHT22;33326;51.116;6.900;2023-05-02T20:41:36;12.50;74.20
47604;DHT22;33326;51.116;6.900;2023-05-02T20:46:38;12.40;74.80
47604;DHT22;33326;51.116;6.900;2023-05-02T20:51:41;12.30;74.80
47604;DHT22;33326;51.116;6.900;2023-05-02T20:56:43;12.10;75.70
47604;DHT22;33326;51.116;6.900;2023-05-02T21:01:45;12.10;76.00
47604;DHT22;33326;51.116;6.900;2023-05-02T21:06:49;12.10;76.50
47604;DHT22;33326;51.116;6.900;2023-05-02T21:11:52;12.00;76.80
47604;DHT22;33326;51.116;6.900;2023-05-02T21:16:54;11.80;77.10
47604;DHT22;33326;51.116;6.900;2023-05-02T21:21:57;11.80;77.40
47604;DHT22;33326;51.116;6.900;2023-05-02T21:26:59;11.60;78.10
47604;DHT22;33326;51.116;6.900;2023-05-02T21:32:01;11.50;78.70
47604;DHT22;33326;51.116;6.900;2023-05-02T21:37:04;11.50;79.20
47604;DHT22;33326;51.116;6.900;2023-05-02T21:42:06;11.20;79.90
47604;DHT22;33326;51.116;6.900;2023-05-02T21:47:08;11.20;80.50
47604;DHT22;33326;51.116;6.900;2023-05-02T21:52:11;11.10;81.30
47604;DHT22;33326;51.116;6.900;2023-05-02T21:57:13;11.00;82.60
47604;DHT22;33326;51.116;6.900;2023-05-02T22:02:15;11.00;82.40
47604;DHT22;33326;51.116;6.900;2023-05-02T22:07:18;10.90;83.10
47604;DHT22;33326;51.116;6.900;2023-05-02T22:12:20;10.80;83.60
47604;DHT22;33326;51.116;6.900;2023-05-02T22:17:23;10.80;83.60
47604;DHT22;33326;51.116;6.900;2023-05-02T22:22:26;10.80;84.30
47604;DHT22;33326;51.116;6.900;2023-05-02T22:27:28;10.80;85.00
47604;DHT22;33326;51.116;6.900;2023-05-02T22:32:30;10.80;86.00
47604;DHT22;33326;51.116;6.900;2023-05-02T22:37:33;10.70;86.20
47604;DHT22;33326;51.116;6.900;2023-05-02T22:42:35;10.50;87.60
47604;DHT22;33326;51.116;6.900;2023-05-02T22:47:37;10.50;87.80
47604;DHT22;33326;51.116;6.900;2023-05-02T22:52:40;10.50;88.30
47604;DHT22;33326;51.116;6.900;2023-05-02T22:57:42;10.30;88.80
47604;DHT22;33326;51.116;6.900;2023-05-02T23:02:44;10.20;89.90
47604;DHT22;33326;51.116;6.900;2023-05-02T23:07:47;10.20;90.10
47604;DHT22;33326;51.116;6.900;2023-05-02T23:12:49;10.30;90.20
47604;DHT22;33326;51.116;6.900;2023-05-02T23:17:51;10.30;90.30
47604;DHT22;33326;51.116;6.900;2023-05-02T23:22:54;10.20;90.60
47604;DHT22;33326;51.116;6.900;2023-05-02T23:27:56;10.20;91.10
47604;DHT22;33326;51.116;6.900;2023-05-02T23:32:58;10.00;91.80
47604;DHT22;33326;51.116;6.900;2023-05-02T23:38:04;10.00;92.00
47604;DHT22;33326;51.116;6.900;2023-05-02T23:43:07;9.90;92.90
47604;DHT22;33326;51.116;6.900;2023-05-02T23:48:09;9.80;93.20
47604;DHT22;33326;51.116;6.900;2023-05-02T23:53:12;9.70;93.60
47604;DHT22;33326;51.116;6.900;2023-05-02T23:58:14;9.70;93.90
